メインページ
METAR-TAF:

METAR-TAF

空港 :

サラック空港

マルア, カメルーン

緯度: 10-27N, 経度: 014-15E, 海抜: 423m

現時点の気象観測

当レポートは1時間29分前の13:00(UTC)に作成
気温
気圧 1015 hPa
視程10km以上
高度1700ftの雲は散在している
高度2000ftの雲はほとんどない, 積乱雲.
激しい雷雨, 小雨,

METAR: FKKL 121300Z /////KT 9999 -TSRA SCT017 FEW020CB ///// Q1015

時間: 15:29 (14:29 UTC)

予報

当レポートは9時間29分前の05:00(UTC)に作成
予報は12日の 06時(UTC)から 12日の 18時(UTC)まで有効
西/南西の風 4kt
視程10km以上
高度3000ftの雲はほとんどない
確率 30%
12日の 13時(UTC)から 12日の 17時(UTC)まで
視程: 3000m
高度1400ftの千切れ雲あり
高度2500ftの雲はほとんどない, 積乱雲.
激しい雷雨, 雨,

TAF: FKKL 120500Z 1206/1218 24004KT 9999 FEW030 PROB30 1213/1217 3000 TSRA BKN014 FEW025CB

4,000以上の空港の気象観測と天気予報(METAR報とTAF報)

利用可能な観測所は地図上に黄色い丸と赤い丸で示す。

丸の上にカーソルを重ねると観測所名を参照できる。

次にクリックすると気象観測と天気予報を参照できる。

マップの切り替え:黒色「×」印の緑ボタンをクリックして拡大、「-」印の緑ボタンをクリックして縮小、緑色の三角印をクリックして隣りの地図に切り替え


METAR-TAF: